sensor_id;sensor_type;location;lat;lon;timestamp;P1;durP1;ratioP1;P2;durP2;ratioP2
8665;SDS011;4370;48.916;8.380;2023-02-28T00:01:25;5.33;;;3.57;;
8665;SDS011;4370;48.916;8.380;2023-02-28T00:03:51;5.33;;;3.90;;
8665;SDS011;4370;48.916;8.380;2023-02-28T00:06:16;5.00;;;3.40;;
8665;SDS011;4370;48.916;8.380;2023-02-28T00:08:43;8.80;;;3.93;;
8665;SDS011;4370;48.916;8.380;2023-02-28T00:11:10;4.73;;;3.40;;
8665;SDS011;4370;48.916;8.380;2023-02-28T00:13:38;4.50;;;3.60;;
8665;SDS011;4370;48.916;8.380;2023-02-28T00:16:11;4.57;;;3.60;;
8665;SDS011;4370;48.916;8.380;2023-02-28T00:18:38;4.23;;;3.60;;
8665;SDS011;4370;48.916;8.380;2023-02-28T00:21:05;7.40;;;4.07;;
8665;SDS011;4370;48.916;8.380;2023-02-28T00:23:31;6.07;;;3.73;;
8665;SDS011;4370;48.916;8.380;2023-02-28T00:25:57;5.20;;;3.70;;
8665;SDS011;4370;48.916;8.380;2023-02-28T00:28:22;5.13;;;3.93;;
8665;SDS011;4370;48.916;8.380;2023-02-28T00:30:48;6.30;;;3.40;;
8665;SDS011;4370;48.916;8.380;2023-02-28T00:33:14;8.87;;;4.40;;
8665;SDS011;4370;48.916;8.380;2023-02-28T00:35:40;4.63;;;3.60;;
8665;SDS011;4370;48.916;8.380;2023-02-28T00:38:06;5.27;;;3.80;;
8665;SDS011;4370;48.916;8.380;2023-02-28T00:40:32;7.10;;;4.10;;
8665;SDS011;4370;48.916;8.380;2023-02-28T00:42:58;4.27;;;3.53;;
8665;SDS011;4370;48.916;8.380;2023-02-28T00:45:24;4.90;;;3.90;;
8665;SDS011;4370;48.916;8.380;2023-02-28T00:47:50;4.83;;;3.60;;
8665;SDS011;4370;48.916;8.380;2023-02-28T00:50:17;6.13;;;3.87;;
8665;SDS011;4370;48.916;8.380;2023-02-28T00:52:43;5.87;;;4.03;;
8665;SDS011;4370;48.916;8.380;2023-02-28T00:55:09;5.97;;;4.07;;
8665;SDS011;4370;48.916;8.380;2023-02-28T00:57:35;4.93;;;3.60;;
8665;SDS011;4370;48.916;8.380;2023-02-28T01:00:01;9.37;;;4.13;;
8665;SDS011;4370;48.916;8.380;2023-02-28T01:02:28;6.53;;;4.23;;
8665;SDS011;4370;48.916;8.380;2023-02-28T01:04:54;5.87;;;4.00;;
8665;SDS011;4370;48.916;8.380;2023-02-28T01:07:21;5.13;;;3.70;;
8665;SDS011;4370;48.916;8.380;2023-02-28T01:09:47;4.13;;;3.47;;
8665;SDS011;4370;48.916;8.380;2023-02-28T01:12:13;3.90;;;3.47;;
8665;SDS011;4370;48.916;8.380;2023-02-28T01:14:38;5.90;;;4.10;;
8665;SDS011;4370;48.916;8.380;2023-02-28T01:17:04;4.43;;;4.00;;
8665;SDS011;4370;48.916;8.380;2023-02-28T01:19:30;5.37;;;4.13;;
8665;SDS011;4370;48.916;8.380;2023-02-28T01:21:56;5.40;;;3.93;;
8665;SDS011;4370;48.916;8.380;2023-02-28T01:24:22;6.97;;;4.30;;
8665;SDS011;4370;48.916;8.380;2023-02-28T01:26:48;5.60;;;4.10;;
8665;SDS011;4370;48.916;8.380;2023-02-28T01:29:14;7.97;;;4.10;;
8665;SDS011;4370;48.916;8.380;2023-02-28T01:31:41;5.23;;;3.83;;
8665;SDS011;4370;48.916;8.380;2023-02-28T01:34:06;5.50;;;4.00;;
8665;SDS011;4370;48.916;8.380;2023-02-28T01:36:32;6.87;;;3.87;;
8665;SDS011;4370;48.916;8.380;2023-02-28T01:38:58;5.10;;;3.93;;
8665;SDS011;4370;48.916;8.380;2023-02-28T01:41:28;5.50;;;4.10;;
8665;SDS011;4370;48.916;8.380;2023-02-28T01:43:57;8.53;;;4.30;;
8665;SDS011;4370;48.916;8.380;2023-02-28T01:46:28;6.47;;;4.27;;
8665;SDS011;4370;48.916;8.380;2023-02-28T01:48:59;4.60;;;4.07;;
8665;SDS011;4370;48.916;8.380;2023-02-28T01:51:41;7.23;;;4.80;;
8665;SDS011;4370;48.916;8.380;2023-02-28T01:54:20;7.10;;;4.50;;
8665;SDS011;4370;48.916;8.380;2023-02-28T01:56:55;5.83;;;4.40;;
8665;SDS011;4370;48.916;8.380;2023-02-28T01:59:33;6.30;;;4.23;;
8665;SDS011;4370;48.916;8.380;2023-02-28T02:02:10;7.73;;;4.30;;
8665;SDS011;4370;48.916;8.380;2023-02-28T02:04:40;4.80;;;4.30;;
8665;SDS011;4370;48.916;8.380;2023-02-28T02:07:07;5.67;;;4.43;;
8665;SDS011;4370;48.916;8.380;2023-02-28T02:09:33;6.17;;;4.23;;
8665;SDS011;4370;48.916;8.380;2023-02-28T02:12:00;5.90;;;4.13;;
8665;SDS011;4370;48.916;8.380;2023-02-28T02:22:30;7.93;;;4.23;;
8665;SDS011;4370;48.916;8.380;2023-02-28T02:25:26;5.80;;;4.50;;
8665;SDS011;4370;48.916;8.380;2023-02-28T02:28:04;5.37;;;3.90;;
8665;SDS011;4370;48.916;8.380;2023-02-28T02:36:05;6.40;;;4.30;;
8665;SDS011;4370;48.916;8.380;2023-02-28T02:41:08;5.87;;;4.57;;
8665;SDS011;4370;48.916;8.380;2023-02-28T02:43:53;4.97;;;4.37;;
8665;SDS011;4370;48.916;8.380;2023-02-28T02:46:25;6.67;;;4.40;;
8665;SDS011;4370;48.916;8.380;2023-02-28T02:48:52;6.40;;;4.63;;
8665;SDS011;4370;48.916;8.380;2023-02-28T02:51:21;7.10;;;4.67;;
8665;SDS011;4370;48.916;8.380;2023-02-28T02:53:49;7.63;;;4.63;;
8665;SDS011;4370;48.916;8.380;2023-02-28T02:56:21;5.33;;;4.43;;
8665;SDS011;4370;48.916;8.380;2023-02-28T02:58:50;7.40;;;4.60;;
8665;SDS011;4370;48.916;8.380;2023-02-28T03:01:21;6.17;;;4.67;;
8665;SDS011;4370;48.916;8.380;2023-02-28T03:03:58;5.20;;;4.50;;
8665;SDS011;4370;48.916;8.380;2023-02-28T03:06:35;7.27;;;5.00;;
8665;SDS011;4370;48.916;8.380;2023-02-28T03:09:02;6.60;;;4.90;;
8665;SDS011;4370;48.916;8.380;2023-02-28T03:11:29;8.17;;;4.87;;
8665;SDS011;4370;48.916;8.380;2023-02-28T03:13:59;6.43;;;4.90;;
8665;SDS011;4370;48.916;8.380;2023-02-28T03:16:36;8.13;;;5.00;;
8665;SDS011;4370;48.916;8.380;2023-02-28T03:19:18;5.80;;;4.93;;
8665;SDS011;4370;48.916;8.380;2023-02-28T03:21:58;5.90;;;4.93;;
8665;SDS011;4370;48.916;8.380;2023-02-28T03:27:21;6.70;;;5.20;;
8665;SDS011;4370;48.916;8.380;2023-02-28T03:35:24;6.30;;;4.93;;
8665;SDS011;4370;48.916;8.380;2023-02-28T03:37:56;10.43;;;5.60;;
8665;SDS011;4370;48.916;8.380;2023-02-28T03:40:30;7.33;;;4.40;;
8665;SDS011;4370;48.916;8.380;2023-02-28T03:42:59;6.60;;;4.47;;
8665;SDS011;4370;48.916;8.380;2023-02-28T03:45:33;7.13;;;4.90;;
8665;SDS011;4370;48.916;8.380;2023-02-28T03:48:03;5.70;;;4.47;;
8665;SDS011;4370;48.916;8.380;2023-02-28T03:50:42;5.43;;;4.53;;
8665;SDS011;4370;48.916;8.380;2023-02-28T03:53:11;7.97;;;4.43;;
8665;SDS011;4370;48.916;8.380;2023-02-28T03:56:04;6.20;;;4.40;;
8665;SDS011;4370;48.916;8.380;2023-02-28T04:01:32;6.53;;;4.87;;
8665;SDS011;4370;48.916;8.380;2023-02-28T04:04:06;5.93;;;4.30;;
8665;SDS011;4370;48.916;8.380;2023-02-28T04:06:32;5.90;;;4.40;;
8665;SDS011;4370;48.916;8.380;2023-02-28T04:09:00;5.37;;;4.30;;
8665;SDS011;4370;48.916;8.380;2023-02-28T04:11:33;5.23;;;4.13;;
8665;SDS011;4370;48.916;8.380;2023-02-28T04:14:01;7.57;;;5.00;;
8665;SDS011;4370;48.916;8.380;2023-02-28T04:16:28;6.03;;;4.57;;
8665;SDS011;4370;48.916;8.380;2023-02-28T04:18:54;6.70;;;4.97;;
8665;SDS011;4370;48.916;8.380;2023-02-28T04:21:28;7.67;;;4.77;;
8665;SDS011;4370;48.916;8.380;2023-02-28T04:23:55;8.93;;;5.17;;
8665;SDS011;4370;48.916;8.380;2023-02-28T04:26:25;7.57;;;4.80;;
8665;SDS011;4370;48.916;8.380;2023-02-28T04:28:51;6.63;;;4.63;;
8665;SDS011;4370;48.916;8.380;2023-02-28T04:31:17;8.87;;;5.10;;
8665;SDS011;4370;48.916;8.380;2023-02-28T04:33:42;6.80;;;4.73;;
8665;SDS011;4370;48.916;8.380;2023-02-28T04:36:08;7.77;;;4.60;;
8665;SDS011;4370;48.916;8.380;2023-02-28T04:38:38;7.47;;;4.90;;
8665;SDS011;4370;48.916;8.380;2023-02-28T04:41:04;6.73;;;4.83;;
8665;SDS011;4370;48.916;8.380;2023-02-28T04:43:30;6.20;;;4.80;;
8665;SDS011;4370;48.916;8.380;2023-02-28T04:45:56;7.73;;;5.63;;
8665;SDS011;4370;48.916;8.380;2023-02-28T04:48:24;6.33;;;5.00;;
8665;SDS011;4370;48.916;8.380;2023-02-28T04:50:50;6.77;;;5.07;;
8665;SDS011;4370;48.916;8.380;2023-02-28T04:53:16;9.27;;;6.13;;
8665;SDS011;4370;48.916;8.380;2023-02-28T04:55:42;7.67;;;4.93;;
8665;SDS011;4370;48.916;8.380;2023-02-28T04:58:08;8.50;;;4.93;;
8665;SDS011;4370;48.916;8.380;2023-02-28T05:00:34;7.73;;;5.43;;
8665;SDS011;4370;48.916;8.380;2023-02-28T05:03:00;8.93;;;5.40;;
8665;SDS011;4370;48.916;8.380;2023-02-28T05:05:26;10.37;;;5.77;;
8665;SDS011;4370;48.916;8.380;2023-02-28T05:07:52;8.03;;;5.23;;
8665;SDS011;4370;48.916;8.380;2023-02-28T05:10:20;7.97;;;5.17;;
8665;SDS011;4370;48.916;8.380;2023-02-28T05:12:46;8.20;;;5.87;;
8665;SDS011;4370;48.916;8.380;2023-02-28T05:15:13;7.73;;;5.50;;
8665;SDS011;4370;48.916;8.380;2023-02-28T05:17:39;11.10;;;5.50;;
8665;SDS011;4370;48.916;8.380;2023-02-28T05:20:05;7.00;;;5.17;;
8665;SDS011;4370;48.916;8.380;2023-02-28T05:22:33;8.90;;;5.60;;
8665;SDS011;4370;48.916;8.380;2023-02-28T05:24:59;9.93;;;6.07;;
8665;SDS011;4370;48.916;8.380;2023-02-28T05:27:25;7.23;;;5.43;;
8665;SDS011;4370;48.916;8.380;2023-02-28T05:29:53;8.37;;;5.70;;
8665;SDS011;4370;48.916;8.380;2023-02-28T05:32:19;7.60;;;5.80;;
8665;SDS011;4370;48.916;8.380;2023-02-28T05:34:44;7.80;;;5.27;;
8665;SDS011;4370;48.916;8.380;2023-02-28T05:37:11;7.87;;;5.60;;
8665;SDS011;4370;48.916;8.380;2023-02-28T05:39:37;8.10;;;6.03;;
8665;SDS011;4370;48.916;8.380;2023-02-28T05:42:04;6.73;;;5.50;;
8665;SDS011;4370;48.916;8.380;2023-02-28T05:44:30;8.13;;;5.90;;
8665;SDS011;4370;48.916;8.380;2023-02-28T05:46:56;8.97;;;5.87;;
8665;SDS011;4370;48.916;8.380;2023-02-28T05:49:22;8.40;;;5.70;;
8665;SDS011;4370;48.916;8.380;2023-02-28T05:51:48;8.17;;;5.80;;
8665;SDS011;4370;48.916;8.380;2023-02-28T05:54:13;10.43;;;5.90;;
8665;SDS011;4370;48.916;8.380;2023-02-28T05:56:39;7.73;;;5.67;;
8665;SDS011;4370;48.916;8.380;2023-02-28T05:59:08;10.23;;;5.67;;
8665;SDS011;4370;48.916;8.380;2023-02-28T06:01:35;9.00;;;5.80;;
8665;SDS011;4370;48.916;8.380;2023-02-28T06:04:03;9.87;;;6.57;;
8665;SDS011;4370;48.916;8.380;2023-02-28T06:06:30;8.57;;;5.83;;
8665;SDS011;4370;48.916;8.380;2023-02-28T06:08:56;9.60;;;6.00;;
8665;SDS011;4370;48.916;8.380;2023-02-28T06:11:22;7.87;;;5.80;;
8665;SDS011;4370;48.916;8.380;2023-02-28T06:13:53;8.70;;;6.07;;
8665;SDS011;4370;48.916;8.380;2023-02-28T06:16:20;8.80;;;6.00;;
8665;SDS011;4370;48.916;8.380;2023-02-28T06:18:46;7.90;;;6.03;;
8665;SDS011;4370;48.916;8.380;2023-02-28T06:21:12;9.77;;;5.97;;
8665;SDS011;4370;48.916;8.380;2023-02-28T06:23:38;12.23;;;6.50;;
8665;SDS011;4370;48.916;8.380;2023-02-28T06:26:04;9.50;;;5.73;;
8665;SDS011;4370;48.916;8.380;2023-02-28T06:28:31;7.93;;;5.60;;
8665;SDS011;4370;48.916;8.380;2023-02-28T06:30:57;9.17;;;5.93;;
8665;SDS011;4370;48.916;8.380;2023-02-28T06:33:23;10.37;;;6.37;;
8665;SDS011;4370;48.916;8.380;2023-02-28T06:35:52;10.80;;;6.17;;
8665;SDS011;4370;48.916;8.380;2023-02-28T06:38:17;10.30;;;6.07;;
8665;SDS011;4370;48.916;8.380;2023-02-28T06:40:44;8.03;;;5.60;;
8665;SDS011;4370;48.916;8.380;2023-02-28T06:43:10;9.90;;;6.20;;
8665;SDS011;4370;48.916;8.380;2023-02-28T06:45:40;7.67;;;6.13;;
8665;SDS011;4370;48.916;8.380;2023-02-28T06:48:07;8.17;;;5.90;;
8665;SDS011;4370;48.916;8.380;2023-02-28T06:50:33;9.37;;;5.63;;
8665;SDS011;4370;48.916;8.380;2023-02-28T06:52:59;8.07;;;5.47;;
8665;SDS011;4370;48.916;8.380;2023-02-28T06:55:25;7.87;;;5.70;;
8665;SDS011;4370;48.916;8.380;2023-02-28T06:57:51;7.87;;;5.97;;
8665;SDS011;4370;48.916;8.380;2023-02-28T07:00:17;8.83;;;6.07;;
8665;SDS011;4370;48.916;8.380;2023-02-28T07:02:43;8.67;;;5.40;;
8665;SDS011;4370;48.916;8.380;2023-02-28T07:05:09;9.23;;;5.80;;
8665;SDS011;4370;48.916;8.380;2023-02-28T07:07:35;8.57;;;6.17;;
8665;SDS011;4370;48.916;8.380;2023-02-28T07:10:03;9.10;;;6.00;;
8665;SDS011;4370;48.916;8.380;2023-02-28T07:12:29;8.87;;;6.17;;
8665;SDS011;4370;48.916;8.380;2023-02-28T07:14:55;7.60;;;5.83;;
8665;SDS011;4370;48.916;8.380;2023-02-28T07:17:21;8.40;;;5.77;;
8665;SDS011;4370;48.916;8.380;2023-02-28T07:19:47;9.17;;;6.00;;
8665;SDS011;4370;48.916;8.380;2023-02-28T07:22:13;9.93;;;5.70;;
8665;SDS011;4370;48.916;8.380;2023-02-28T07:24:39;8.63;;;6.00;;
8665;SDS011;4370;48.916;8.380;2023-02-28T07:27:05;9.40;;;5.87;;
8665;SDS011;4370;48.916;8.380;2023-02-28T07:29:31;9.77;;;6.13;;
8665;SDS011;4370;48.916;8.380;2023-02-28T07:31:57;10.07;;;6.30;;
8665;SDS011;4370;48.916;8.380;2023-02-28T07:34:23;7.73;;;5.43;;
8665;SDS011;4370;48.916;8.380;2023-02-28T07:36:52;8.47;;;6.03;;
8665;SDS011;4370;48.916;8.380;2023-02-28T07:39:18;9.00;;;6.47;;
8665;SDS011;4370;48.916;8.380;2023-02-28T07:41:45;7.93;;;5.80;;
8665;SDS011;4370;48.916;8.380;2023-02-28T07:44:11;8.17;;;5.90;;
8665;SDS011;4370;48.916;8.380;2023-02-28T07:46:37;8.27;;;5.70;;
8665;SDS011;4370;48.916;8.380;2023-02-28T07:49:03;8.63;;;5.40;;
8665;SDS011;4370;48.916;8.380;2023-02-28T07:51:29;7.63;;;5.37;;
8665;SDS011;4370;48.916;8.380;2023-02-28T07:53:56;8.30;;;5.57;;
8665;SDS011;4370;48.916;8.380;2023-02-28T07:56:22;8.03;;;5.80;;
8665;SDS011;4370;48.916;8.380;2023-02-28T07:58:48;6.23;;;5.20;;
8665;SDS011;4370;48.916;8.380;2023-02-28T08:01:14;7.97;;;5.50;;
8665;SDS011;4370;48.916;8.380;2023-02-28T08:03:40;9.87;;;6.30;;
8665;SDS011;4370;48.916;8.380;2023-02-28T08:06:07;9.80;;;5.93;;
8665;SDS011;4370;48.916;8.380;2023-02-28T08:08:39;7.47;;;5.60;;
8665;SDS011;4370;48.916;8.380;2023-02-28T08:11:05;8.70;;;5.70;;
8665;SDS011;4370;48.916;8.380;2023-02-28T08:13:31;11.10;;;6.50;;
8665;SDS011;4370;48.916;8.380;2023-02-28T08:15:57;7.13;;;5.87;;
8665;SDS011;4370;48.916;8.380;2023-02-28T08:18:23;10.80;;;5.93;;
8665;SDS011;4370;48.916;8.380;2023-02-28T08:20:49;10.60;;;6.07;;
8665;SDS011;4370;48.916;8.380;2023-02-28T08:23:15;8.87;;;6.03;;
8665;SDS011;4370;48.916;8.380;2023-02-28T08:25:41;10.23;;;6.73;;
8665;SDS011;4370;48.916;8.380;2023-02-28T08:28:06;10.63;;;6.13;;
8665;SDS011;4370;48.916;8.380;2023-02-28T08:30:32;9.37;;;5.73;;
8665;SDS011;4370;48.916;8.380;2023-02-28T08:32:58;9.27;;;6.50;;
8665;SDS011;4370;48.916;8.380;2023-02-28T08:35:24;7.53;;;5.87;;
8665;SDS011;4370;48.916;8.380;2023-02-28T08:37:50;12.90;;;6.67;;
8665;SDS011;4370;48.916;8.380;2023-02-28T08:40:16;11.57;;;6.23;;
8665;SDS011;4370;48.916;8.380;2023-02-28T08:42:46;9.40;;;6.30;;
8665;SDS011;4370;48.916;8.380;2023-02-28T08:45:12;8.90;;;6.43;;
8665;SDS011;4370;48.916;8.380;2023-02-28T08:47:39;9.17;;;6.57;;
8665;SDS011;4370;48.916;8.380;2023-02-28T08:50:05;8.47;;;5.97;;
8665;SDS011;4370;48.916;8.380;2023-02-28T08:52:32;9.10;;;6.10;;
8665;SDS011;4370;48.916;8.380;2023-02-28T08:54:58;9.10;;;6.60;;
8665;SDS011;4370;48.916;8.380;2023-02-28T08:57:24;9.10;;;6.77;;
8665;SDS011;4370;48.916;8.380;2023-02-28T08:59:53;8.27;;;6.37;;
8665;SDS011;4370;48.916;8.380;2023-02-28T09:02:19;10.07;;;6.70;;
8665;SDS011;4370;48.916;8.380;2023-02-28T09:04:45;10.03;;;6.70;;
8665;SDS011;4370;48.916;8.380;2023-02-28T09:07:11;10.83;;;6.53;;
8665;SDS011;4370;48.916;8.380;2023-02-28T09:09:37;8.93;;;6.20;;
8665;SDS011;4370;48.916;8.380;2023-02-28T09:12:22;9.80;;;6.67;;
8665;SDS011;4370;48.916;8.380;2023-02-28T09:14:49;9.73;;;6.67;;
8665;SDS011;4370;48.916;8.380;2023-02-28T09:17:15;9.60;;;6.93;;
8665;SDS011;4370;48.916;8.380;2023-02-28T09:19:41;8.80;;;6.43;;
8665;SDS011;4370;48.916;8.380;2023-02-28T09:22:07;9.63;;;7.03;;
8665;SDS011;4370;48.916;8.380;2023-02-28T09:24:34;14.10;;;7.07;;
8665;SDS011;4370;48.916;8.380;2023-02-28T09:27:00;10.87;;;6.93;;
8665;SDS011;4370;48.916;8.380;2023-02-28T09:29:26;10.57;;;7.40;;
8665;SDS011;4370;48.916;8.380;2023-02-28T09:31:52;10.77;;;7.03;;
8665;SDS011;4370;48.916;8.380;2023-02-28T09:34:18;11.17;;;7.40;;
8665;SDS011;4370;48.916;8.380;2023-02-28T09:36:44;8.97;;;6.93;;
8665;SDS011;4370;48.916;8.380;2023-02-28T09:39:10;8.77;;;6.83;;
8665;SDS011;4370;48.916;8.380;2023-02-28T09:41:38;10.47;;;7.30;;
8665;SDS011;4370;48.916;8.380;2023-02-28T09:44:13;10.27;;;7.23;;
8665;SDS011;4370;48.916;8.380;2023-02-28T09:46:44;11.40;;;7.60;;
8665;SDS011;4370;48.916;8.380;2023-02-28T09:49:16;12.30;;;7.50;;
8665;SDS011;4370;48.916;8.380;2023-02-28T09:51:53;12.17;;;6.70;;
8665;SDS011;4370;48.916;8.380;2023-02-28T09:54:21;10.07;;;7.07;;
8665;SDS011;4370;48.916;8.380;2023-02-28T09:56:50;9.80;;;7.10;;
8665;SDS011;4370;48.916;8.380;2023-02-28T09:59:41;8.97;;;6.70;;
8665;SDS011;4370;48.916;8.380;2023-02-28T10:02:39;11.50;;;7.67;;
8665;SDS011;4370;48.916;8.380;2023-02-28T10:05:14;10.17;;;7.23;;
8665;SDS011;4370;48.916;8.380;2023-02-28T10:10:53;10.80;;;7.93;;
8665;SDS011;4370;48.916;8.380;2023-02-28T10:13:35;11.67;;;7.37;;
8665;SDS011;4370;48.916;8.380;2023-02-28T10:16:16;12.40;;;8.13;;
8665;SDS011;4370;48.916;8.380;2023-02-28T10:18:47;10.13;;;8.00;;
8665;SDS011;4370;48.916;8.380;2023-02-28T10:21:21;10.20;;;7.27;;
8665;SDS011;4370;48.916;8.380;2023-02-28T10:24:03;11.93;;;7.57;;
8665;SDS011;4370;48.916;8.380;2023-02-28T10:26:39;12.03;;;8.00;;
8665;SDS011;4370;48.916;8.380;2023-02-28T10:29:08;10.07;;;7.13;;
8665;SDS011;4370;48.916;8.380;2023-02-28T10:31:35;10.40;;;8.17;;
8665;SDS011;4370;48.916;8.380;2023-02-28T10:34:01;13.73;;;8.27;;
8665;SDS011;4370;48.916;8.380;2023-02-28T10:36:29;10.27;;;7.80;;
8665;SDS011;4370;48.916;8.380;2023-02-28T10:38:55;10.63;;;7.07;;
8665;SDS011;4370;48.916;8.380;2023-02-28T10:41:27;9.03;;;7.27;;
8665;SDS011;4370;48.916;8.380;2023-02-28T10:46:57;12.47;;;7.97;;
8665;SDS011;4370;48.916;8.380;2023-02-28T10:49:24;11.57;;;8.33;;
8665;SDS011;4370;48.916;8.380;2023-02-28T10:51:56;14.63;;;8.07;;
8665;SDS011;4370;48.916;8.380;2023-02-28T10:54:31;15.83;;;8.90;;
8665;SDS011;4370;48.916;8.380;2023-02-28T10:57:07;11.07;;;7.67;;
8665;SDS011;4370;48.916;8.380;2023-02-28T10:59:41;10.87;;;8.43;;
8665;SDS011;4370;48.916;8.380;2023-02-28T11:08:10;12.23;;;8.37;;
8665;SDS011;4370;48.916;8.380;2023-02-28T11:10:43;11.80;;;7.67;;
8665;SDS011;4370;48.916;8.380;2023-02-28T11:13:19;11.40;;;7.80;;
8665;SDS011;4370;48.916;8.380;2023-02-28T11:15:51;10.97;;;8.20;;
8665;SDS011;4370;48.916;8.380;2023-02-28T11:18:24;9.60;;;7.83;;
8665;SDS011;4370;48.916;8.380;2023-02-28T11:20:55;11.33;;;8.40;;
8665;SDS011;4370;48.916;8.380;2023-02-28T11:23:28;14.07;;;8.37;;
8665;SDS011;4370;48.916;8.380;2023-02-28T11:25:59;13.40;;;8.13;;
8665;SDS011;4370;48.916;8.380;2023-02-28T11:28:30;12.87;;;8.43;;
8665;SDS011;4370;48.916;8.380;2023-02-28T11:36:19;10.73;;;7.77;;
8665;SDS011;4370;48.916;8.380;2023-02-28T11:38:49;12.73;;;8.57;;
8665;SDS011;4370;48.916;8.380;2023-02-28T11:46:52;9.73;;;7.40;;
8665;SDS011;4370;48.916;8.380;2023-02-28T11:49:34;12.30;;;7.77;;
8665;SDS011;4370;48.916;8.380;2023-02-28T11:52:20;13.27;;;7.87;;
8665;SDS011;4370;48.916;8.380;2023-02-28T12:05:41;9.93;;;8.33;;
8665;SDS011;4370;48.916;8.380;2023-02-28T12:08:23;11.67;;;8.23;;
8665;SDS011;4370;48.916;8.380;2023-02-28T12:11:13;12.40;;;9.00;;
8665;SDS011;4370;48.916;8.380;2023-02-28T12:13:55;13.33;;;8.27;;
8665;SDS011;4370;48.916;8.380;2023-02-28T12:19:13;12.00;;;9.00;;
8665;SDS011;4370;48.916;8.380;2023-02-28T12:27:17;11.67;;;8.30;;
8665;SDS011;4370;48.916;8.380;2023-02-28T12:29:47;11.70;;;8.80;;
8665;SDS011;4370;48.916;8.380;2023-02-28T12:32:27;12.03;;;8.40;;
8665;SDS011;4370;48.916;8.380;2023-02-28T12:35:11;12.80;;;8.97;;
8665;SDS011;4370;48.916;8.380;2023-02-28T12:37:44;12.87;;;8.13;;
8665;SDS011;4370;48.916;8.380;2023-02-28T12:43:11;11.53;;;8.57;;
8665;SDS011;4370;48.916;8.380;2023-02-28T12:48:06;12.23;;;8.50;;
8665;SDS011;4370;48.916;8.380;2023-02-28T12:50:35;12.63;;;8.53;;
8665;SDS011;4370;48.916;8.380;2023-02-28T12:53:03;13.37;;;8.50;;
8665;SDS011;4370;48.916;8.380;2023-02-28T12:58:38;12.73;;;8.27;;
8665;SDS011;4370;48.916;8.380;2023-02-28T13:09:18;11.63;;;8.80;;
8665;SDS011;4370;48.916;8.380;2023-02-28T13:11:45;13.03;;;8.77;;
8665;SDS011;4370;48.916;8.380;2023-02-28T13:14:59;10.00;;;7.97;;
8665;SDS011;4370;48.916;8.380;2023-02-28T13:19:37;11.13;;;8.27;;
8665;SDS011;4370;48.916;8.380;2023-02-28T13:27:51;13.77;;;8.77;;
8665;SDS011;4370;48.916;8.380;2023-02-28T13:33:31;10.47;;;7.73;;
8665;SDS011;4370;48.916;8.380;2023-02-28T13:38:43;11.47;;;8.07;;
8665;SDS011;4370;48.916;8.380;2023-02-28T13:51:50;12.47;;;8.43;;
8665;SDS011;4370;48.916;8.380;2023-02-28T14:00:13;12.03;;;8.50;;
8665;SDS011;4370;48.916;8.380;2023-02-28T14:05:05;10.97;;;8.10;;
8665;SDS011;4370;48.916;8.380;2023-02-28T14:07:43;11.13;;;8.47;;
8665;SDS011;4370;48.916;8.380;2023-02-28T14:10:20;11.73;;;8.37;;
8665;SDS011;4370;48.916;8.380;2023-02-28T14:15:47;11.33;;;8.37;;
8665;SDS011;4370;48.916;8.380;2023-02-28T14:18:18;11.30;;;8.27;;
8665;SDS011;4370;48.916;8.380;2023-02-28T14:20:47;13.43;;;9.27;;
8665;SDS011;4370;48.916;8.380;2023-02-28T14:23:24;10.93;;;8.80;;
8665;SDS011;4370;48.916;8.380;2023-02-28T14:28:47;13.80;;;8.93;;
8665;SDS011;4370;48.916;8.380;2023-02-28T14:31:25;11.27;;;8.40;;
8665;SDS011;4370;48.916;8.380;2023-02-28T14:34:03;13.43;;;8.93;;
8665;SDS011;4370;48.916;8.380;2023-02-28T14:36:37;11.73;;;8.63;;
8665;SDS011;4370;48.916;8.380;2023-02-28T14:39:05;11.20;;;8.80;;
8665;SDS011;4370;48.916;8.380;2023-02-28T14:41:37;11.97;;;9.77;;
8665;SDS011;4370;48.916;8.380;2023-02-28T14:44:23;14.83;;;9.43;;
8665;SDS011;4370;48.916;8.380;2023-02-28T14:46:54;14.47;;;9.40;;
8665;SDS011;4370;48.916;8.380;2023-02-28T14:49:28;12.20;;;9.80;;
8665;SDS011;4370;48.916;8.380;2023-02-28T14:52:05;12.83;;;9.53;;
8665;SDS011;4370;48.916;8.380;2023-02-28T14:54:37;14.47;;;10.37;;
8665;SDS011;4370;48.916;8.380;2023-02-28T14:57:04;14.03;;;9.67;;
8665;SDS011;4370;48.916;8.380;2023-02-28T14:59:34;14.97;;;10.13;;
8665;SDS011;4370;48.916;8.380;2023-02-28T15:04:55;13.70;;;10.00;;
8665;SDS011;4370;48.916;8.380;2023-02-28T15:07:21;15.13;;;9.63;;
8665;SDS011;4370;48.916;8.380;2023-02-28T15:10:15;12.17;;;9.00;;
8665;SDS011;4370;48.916;8.380;2023-02-28T15:12:53;13.43;;;10.03;;
8665;SDS011;4370;48.916;8.380;2023-02-28T15:15:19;13.57;;;9.30;;
8665;SDS011;4370;48.916;8.380;2023-02-28T15:17:46;11.40;;;9.27;;
8665;SDS011;4370;48.916;8.380;2023-02-28T15:20:15;14.53;;;10.00;;
8665;SDS011;4370;48.916;8.380;2023-02-28T15:22:43;14.40;;;9.43;;
8665;SDS011;4370;48.916;8.380;2023-02-28T15:25:10;14.67;;;10.03;;
8665;SDS011;4370;48.916;8.380;2023-02-28T15:27:43;12.97;;;9.63;;
8665;SDS011;4370;48.916;8.380;2023-02-28T15:30:31;13.27;;;9.63;;
8665;SDS011;4370;48.916;8.380;2023-02-28T15:35:41;12.70;;;9.50;;
8665;SDS011;4370;48.916;8.380;2023-02-28T15:38:26;13.37;;;9.83;;
8665;SDS011;4370;48.916;8.380;2023-02-28T15:40:53;12.73;;;9.67;;
8665;SDS011;4370;48.916;8.380;2023-02-28T15:46:11;11.83;;;8.93;;
8665;SDS011;4370;48.916;8.380;2023-02-28T15:48:48;12.90;;;9.50;;
8665;SDS011;4370;48.916;8.380;2023-02-28T15:51:21;13.20;;;9.33;;
8665;SDS011;4370;48.916;8.380;2023-02-28T15:54:00;13.67;;;10.30;;
8665;SDS011;4370;48.916;8.380;2023-02-28T15:56:48;15.00;;;9.23;;
8665;SDS011;4370;48.916;8.380;2023-02-28T15:59:24;13.07;;;9.87;;
8665;SDS011;4370;48.916;8.380;2023-02-28T16:07:23;12.77;;;9.53;;
8665;SDS011;4370;48.916;8.380;2023-02-28T16:09:49;16.10;;;9.87;;
8665;SDS011;4370;48.916;8.380;2023-02-28T16:12:15;12.03;;;9.37;;
8665;SDS011;4370;48.916;8.380;2023-02-28T16:14:41;12.10;;;9.97;;
8665;SDS011;4370;48.916;8.380;2023-02-28T16:17:11;13.90;;;9.60;;
8665;SDS011;4370;48.916;8.380;2023-02-28T16:19:45;15.87;;;9.87;;
8665;SDS011;4370;48.916;8.380;2023-02-28T16:22:11;14.43;;;10.33;;
8665;SDS011;4370;48.916;8.380;2023-02-28T16:24:37;14.53;;;9.90;;
8665;SDS011;4370;48.916;8.380;2023-02-28T16:27:03;14.67;;;9.80;;
8665;SDS011;4370;48.916;8.380;2023-02-28T16:29:31;12.77;;;9.80;;
8665;SDS011;4370;48.916;8.380;2023-02-28T16:32:00;16.10;;;9.30;;
8665;SDS011;4370;48.916;8.380;2023-02-28T16:34:26;13.80;;;10.40;;
8665;SDS011;4370;48.916;8.380;2023-02-28T16:36:52;12.57;;;9.70;;
8665;SDS011;4370;48.916;8.380;2023-02-28T16:39:18;13.80;;;10.20;;
8665;SDS011;4370;48.916;8.380;2023-02-28T16:41:48;13.77;;;9.70;;
8665;SDS011;4370;48.916;8.380;2023-02-28T16:44:27;12.50;;;9.87;;
8665;SDS011;4370;48.916;8.380;2023-02-28T16:46:55;14.40;;;9.87;;
8665;SDS011;4370;48.916;8.380;2023-02-28T16:49:22;13.70;;;9.80;;
8665;SDS011;4370;48.916;8.380;2023-02-28T16:51:48;13.33;;;10.00;;
8665;SDS011;4370;48.916;8.380;2023-02-28T16:54:14;14.87;;;9.47;;
8665;SDS011;4370;48.916;8.380;2023-02-28T16:56:41;12.10;;;9.73;;
8665;SDS011;4370;48.916;8.380;2023-02-28T16:59:09;14.20;;;10.43;;
8665;SDS011;4370;48.916;8.380;2023-02-28T17:01:36;13.93;;;10.00;;
8665;SDS011;4370;48.916;8.380;2023-02-28T17:04:02;14.00;;;9.90;;
8665;SDS011;4370;48.916;8.380;2023-02-28T17:06:28;14.30;;;9.80;;
8665;SDS011;4370;48.916;8.380;2023-02-28T17:08:55;13.63;;;9.83;;
8665;SDS011;4370;48.916;8.380;2023-02-28T17:11:21;14.80;;;10.67;;
8665;SDS011;4370;48.916;8.380;2023-02-28T17:13:47;15.47;;;11.10;;
8665;SDS011;4370;48.916;8.380;2023-02-28T17:16:15;12.40;;;10.03;;
8665;SDS011;4370;48.916;8.380;2023-02-28T17:18:49;13.43;;;10.23;;
8665;SDS011;4370;48.916;8.380;2023-02-28T17:21:16;16.90;;;10.83;;
8665;SDS011;4370;48.916;8.380;2023-02-28T17:23:42;17.90;;;10.57;;
8665;SDS011;4370;48.916;8.380;2023-02-28T17:26:11;14.27;;;10.40;;
8665;SDS011;4370;48.916;8.380;2023-02-28T17:28:38;15.20;;;10.17;;
8665;SDS011;4370;48.916;8.380;2023-02-28T17:31:04;15.37;;;10.60;;
8665;SDS011;4370;48.916;8.380;2023-02-28T17:33:30;13.67;;;9.63;;
8665;SDS011;4370;48.916;8.380;2023-02-28T17:35:56;13.77;;;9.37;;
8665;SDS011;4370;48.916;8.380;2023-02-28T17:38:22;14.60;;;10.50;;
8665;SDS011;4370;48.916;8.380;2023-02-28T17:40:48;14.87;;;10.60;;